Time;durP1;ratioP1;P1;durP2;ratioP2;P2;SDS_P1;SDS_P2;PMS_P1;PMS_P2;Temp;Humidity;BMP_temperature;BMP_pressure;BME280_temperature;BME280_humidity;BME280_pressure;Samples;Min_cycle;Max_cycle;Signal;HPM_P1;HPM_P2
2022/10/07 00:00:58;;;;;;;7.57;3.60;;;;;;;;;;5055387;28;20059;-81
2022/10/07 00:03:25;;;;;;;6.40;3.80;;;;;;;;;;5038397;28;20120;-81
2022/10/07 00:06:00;;;;;;;4.70;3.40;;;;;;;;;;5038116;28;20098;-80
2022/10/07 00:08:26;;;;;;;4.55;3.13;;;;;;;;;;5037944;28;20037;-81
2022/10/07 00:10:53;;;;;;;5.90;3.30;;;;;;;;;;5057531;28;20107;-81
2022/10/07 00:13:19;;;;;;;7.78;4.88;;;;;;;;;;5055741;28;20107;-81
2022/10/07 00:15:45;;;;;;;11.60;4.63;;;;;;;;;;5037795;28;20022;-80
2022/10/07 00:18:11;;;;;;;4.35;3.70;;;;;;;;;;5041321;28;20520;-80
2022/10/07 00:20:38;;;;;;;6.38;3.97;;;13.80;99.90;;;;;;5062219;28;20374;-80
2022/10/07 00:23:04;;;;;;;4.88;4.18;;;13.80;99.90;;;;;;5059352;28;20049;-80
2022/10/07 00:25:30;;;;;;;4.65;4.18;;;13.80;99.90;;;;;;5034431;28;20494;-80
2022/10/07 00:27:57;;;;;;;5.97;3.88;;;13.80;99.90;;;;;;5018527;28;20036;-80
2022/10/07 00:30:22;;;;;;;5.90;4.13;;;13.70;99.90;;;;;;5018993;28;20025;-81
2022/10/07 00:32:48;;;;;;;4.55;3.45;;;13.70;99.90;;;;;;5018413;28;20022;-80
2022/10/07 00:35:14;;;;;;;3.75;3.38;;;13.70;99.90;;;;;;5035643;28;20033;-80
2022/10/07 00:37:41;;;;;;;3.35;3.05;;;13.70;99.90;;;;;;5018847;28;20056;-82
2022/10/07 00:40:11;;;;;;;4.35;3.70;;;13.70;99.90;;;;;;5018518;28;20030;-80
2022/10/07 00:42:37;;;;;;;4.70;3.72;;;13.70;99.90;;;;;;5022710;28;20032;-81
2022/10/07 00:45:04;;;;;;;5.60;3.83;;;13.70;99.90;;;;;;5057247;28;20060;-79
2022/10/07 00:47:34;;;;;;;5.88;3.75;;;13.70;99.90;;;;;;5062283;28;20021;-80
2022/10/07 00:50:01;;;;;;;6.55;3.97;;;13.70;99.90;;;;;;5056769;28;20033;-80
2022/10/07 00:52:30;;;;;;;6.15;4.35;;;13.70;99.90;;;;;;5073373;28;20401;-80
2022/10/07 00:54:58;;;;;;;4.53;3.92;;;13.70;99.90;;;;;;5067421;28;20032;-80
2022/10/07 00:57:28;;;;;;;6.75;4.57;;;13.70;99.90;;;;;;5045778;28;20087;-80
2022/10/07 00:59:55;;;;;;;6.20;4.45;;;13.70;99.90;;;;;;5040184;28;20108;-81
2022/10/07 01:02:26;;;;;;;5.88;4.20;;;13.60;99.90;;;;;;5037181;28;20060;-80
2022/10/07 01:04:53;;;;;;;4.47;3.75;;;13.60;99.90;;;;;;5036974;28;20021;-80
2022/10/07 01:07:20;;;;;;;3.97;3.38;;;13.60;99.90;;;;;;5039646;28;20056;-80
2022/10/07 01:09:51;;;;;;;6.45;4.72;;;13.60;99.90;;;;;;5040526;28;20021;-81
2022/10/07 01:12:35;;;;;;;5.63;4.07;;;13.60;99.90;;;;;;5037425;28;20026;-80
2022/10/07 01:15:12;;;;;;;6.00;4.55;;;13.60;99.90;;;;;;5057450;28;20473;-80
2022/10/07 01:17:52;;;;;;;6.50;4.15;;;13.60;99.90;;;;;;5059929;28;20021;-80
2022/10/07 01:21:02;;;;;;;4.85;3.38;;;13.60;99.90;;;;;;5038731;28;20028;-80
2022/10/07 01:24:03;;;;;;;3.55;3.20;;;13.60;99.90;;;;;;5054260;28;20104;-80
2022/10/07 01:26:47;;;;;;;6.30;4.05;;;13.60;99.90;;;;;;5027988;28;20048;-80
2022/10/07 01:29:24;;;;;;;6.15;4.53;;;13.60;99.90;;;;;;5056782;28;20445;-80
2022/10/07 01:32:03;;;;;;;8.55;5.85;;;13.60;99.90;;;;;;5061479;28;20031;-80
2022/10/07 01:34:31;;;;;;;7.00;5.40;;;13.50;99.90;;;;;;5058224;28;20017;-81
2022/10/07 01:36:59;;;;;;;6.40;4.72;;;13.50;99.90;;;;;;5038896;28;20047;-82
2022/10/07 01:39:31;;;;;;;5.60;4.60;;;13.50;99.90;;;;;;5039896;28;20509;-80
2022/10/07 01:41:57;;;;;;;7.47;4.28;;;13.40;99.90;;;;;;5019620;28;20141;-81
2022/10/07 01:44:25;;;;;;;4.05;3.50;;;13.40;99.90;;;;;;5036720;28;20040;-81
2022/10/07 01:46:51;;;;;;;4.03;3.35;;;13.50;99.90;;;;;;5039979;28;20525;-80
2022/10/07 01:49:16;;;;;;;5.57;3.63;;;13.50;99.90;;;;;;5019754;28;20029;-81
2022/10/07 01:51:42;;;;;;;5.75;3.35;;;13.40;99.90;;;;;;5039082;28;20029;-81
2022/10/07 01:54:14;;;;;;;3.33;2.95;;;13.40;99.90;;;;;;5051906;28;20036;-80
2022/10/07 01:56:56;;;;;;;3.75;2.90;;;13.50;99.90;;;;;;5049163;28;20358;-80
2022/10/07 01:59:51;;;;;;;3.75;2.75;;;13.50;99.90;;;;;;5056693;28;20032;-80
2022/10/07 02:02:36;;;;;;;4.88;3.35;;;13.50;99.90;;;;;;5060228;28;20104;-80
2022/10/07 02:05:16;;;;;;;5.05;3.90;;;13.50;99.90;;;;;;5041761;28;20378;-81
2022/10/07 02:08:00;;;;;;;5.07;4.25;;;13.50;99.90;;;;;;5038174;28;20033;-81
2022/10/07 02:11:08;;;;;;;4.82;3.40;;;13.40;99.90;;;;;;5059930;28;20070;-80
2022/10/07 02:13:54;;;;;;;4.28;3.15;;;13.40;99.90;;;;;;5041574;28;20035;-80
2022/10/07 02:16:35;;;;;;;5.30;4.78;;;13.40;99.90;;;;;;5037241;28;20378;-81
2022/10/07 02:19:07;;;;;;;3.83;3.40;;;13.40;99.90;;;;;;5040331;28;20081;-81
2022/10/07 02:21:35;;;;;;;3.38;2.90;;;13.40;99.90;;;;;;5018502;28;20429;-81
2022/10/07 02:24:02;;;;;;;3.20;2.90;;;13.40;99.90;;;;;;5052440;28;20025;-81
2022/10/07 02:26:31;;;;;;;3.55;3.00;;;13.40;99.90;;;;;;5043459;28;20018;-80
2022/10/07 02:29:00;;;;;;;7.57;5.32;;;13.40;99.90;;;;;;5020810;28;20447;-80
2022/10/07 02:31:30;;;;;;;5.63;3.92;;;13.40;99.90;;;;;;5035557;28;20014;-80
2022/10/07 02:33:57;;;;;;;3.90;3.50;;;13.30;99.90;;;;;;5016893;28;20021;-81
2022/10/07 02:36:43;;;;;;;6.22;4.43;;;13.20;99.90;;;;;;5037626;28;20044;-80
2022/10/07 02:39:10;;;;;;;8.02;4.43;;;13.20;99.90;;;;;;5035681;28;20169;-80
2022/10/07 02:41:53;;;;;;;5.53;4.30;;;13.10;99.90;;;;;;5025051;22;20034;-81
2022/10/07 02:44:38;;;;;;;5.28;4.07;;;13.10;99.90;;;;;;5026947;28;20030;-81
2022/10/07 02:47:10;;;;;;;4.53;3.67;;;13.10;99.90;;;;;;5034230;28;20355;-81
2022/10/07 02:49:40;;;;;;;3.78;3.40;;;13.00;99.90;;;;;;5001963;28;20018;-80
2022/10/07 02:52:15;;;;;;;3.80;3.47;;;13.00;99.90;;;;;;5023047;28;20108;-82
2022/10/07 02:54:46;;;;;;;5.07;4.03;;;12.90;99.90;;;;;;5021213;28;20517;-81
2022/10/07 02:57:16;;;;;;;8.02;4.88;;;12.90;99.90;;;;;;5003234;28;20030;-81
2022/10/07 02:59:44;;;;;;;4.50;4.10;;;12.90;99.90;;;;;;5017195;28;20022;-81
2022/10/07 03:02:20;;;;;;;5.38;4.88;;;12.80;99.90;;;;;;5017559;28;20029;-80
2022/10/07 03:04:47;;;;;;;5.38;4.45;;;12.80;99.90;;;;;;5016317;28;20582;-81
2022/10/07 03:07:13;;;;;;;5.97;4.50;;;12.70;99.90;;;;;;5000156;28;20076;-81
2022/10/07 03:09:40;;;;;;;8.65;4.65;;;12.70;99.90;;;;;;5023096;28;20033;-82
2022/10/07 03:12:06;;;;;;;7.75;5.25;;;12.60;99.90;;;;;;5032239;28;20033;-80
2022/10/07 03:14:34;;;;;;;7.22;5.10;;;12.60;99.90;;;;;;5038205;28;20378;-80
2022/10/07 03:17:00;;;;;;;5.47;4.90;;;12.50;99.90;;;;;;5040769;28;20104;-81
2022/10/07 03:19:26;;;;;;;8.65;4.85;;;12.50;99.90;;;;;;5028064;28;20540;-81
2022/10/07 03:21:53;;;;;;;6.07;4.78;;;12.40;99.90;;;;;;5025272;28;20037;-81
2022/10/07 03:24:18;;;;;;;4.47;4.05;;;12.40;99.90;;;;;;5015390;28;20094;-82
2022/10/07 03:26:44;;;;;;;6.25;4.20;;;12.30;99.90;;;;;;5016840;28;20049;-81
2022/10/07 03:29:10;;;;;;;4.97;4.35;;;12.30;99.90;;;;;;5049177;28;20029;-81
2022/10/07 03:31:35;;;;;;;4.20;3.80;;;12.20;99.90;;;;;;5044327;28;20462;-81
2022/10/07 03:34:01;;;;;;;3.80;3.40;;;12.20;99.90;;;;;;5036782;28;20397;-82
2022/10/07 03:36:27;;;;;;;4.15;3.50;;;12.10;99.90;;;;;;5035461;28;20036;-82
2022/10/07 03:38:54;;;;;;;3.55;3.25;;;12.10;99.90;;;;;;5020588;28;20076;-82
2022/10/07 03:41:20;;;;;;;4.22;3.35;;;12.10;99.90;;;;;;5037085;28;20036;-81
2022/10/07 03:43:46;;;;;;;4.85;3.65;;;12.00;99.90;;;;;;5036963;28;20064;-80
2022/10/07 03:46:11;;;;;;;3.85;3.53;;;12.00;99.90;;;;;;5022414;28;20025;-80
2022/10/07 03:48:37;;;;;;;4.13;3.55;;;12.00;99.90;;;;;;5025746;28;20033;-80
2022/10/07 03:51:03;;;;;;;3.92;3.30;;;12.00;99.90;;;;;;5039788;28;20028;-80
2022/10/07 03:53:28;;;;;;;4.53;3.72;;;11.90;99.90;;;;;;5033371;28;20030;-80
2022/10/07 03:55:54;;;;;;;6.32;4.57;;;11.90;99.90;;;;;;5025268;28;20056;-80
2022/10/07 03:58:20;;;;;;;6.53;5.53;;;11.80;99.90;;;;;;5041581;28;20030;-80
2022/10/07 04:00:46;;;;;;;6.38;5.03;;;11.80;99.90;;;;;;5037665;28;20029;-80
2022/10/07 04:03:13;;;;;;;5.78;4.45;;;11.80;99.90;;;;;;5045079;28;20032;-80
2022/10/07 04:05:39;;;;;;;5.38;4.50;;;11.70;99.90;;;;;;5044028;28;20036;-80
2022/10/07 04:08:04;;;;;;;4.28;3.80;;;11.70;99.90;;;;;;5044110;28;20049;-82
2022/10/07 04:10:31;;;;;;;5.40;3.95;;;11.70;99.90;;;;;;5047355;28;20069;-81
2022/10/07 04:12:56;;;;;;;4.60;3.80;;;11.70;99.90;;;;;;5048843;28;20017;-81
2022/10/07 04:15:22;;;;;;;3.65;3.35;;;11.60;99.90;;;;;;5047462;28;20033;-81
2022/10/07 04:17:48;;;;;;;4.07;3.58;;;11.60;99.90;;;;;;5030796;28;20093;-81
2022/10/07 04:20:15;;;;;;;3.58;3.08;;;11.60;99.90;;;;;;5048525;28;20110;-82
2022/10/07 04:22:41;;;;;;;4.35;3.30;;;11.60;99.90;;;;;;5048513;28;20024;-82
2022/10/07 04:27:55;;;;;;;3.70;3.20;;;11.60;99.90;;;;;;5046986;28;20036;-80
2022/10/07 04:30:23;;;;;;;4.40;3.17;;;11.60;99.90;;;;;;5029557;28;20032;-82
2022/10/07 04:32:49;;;;;;;4.45;3.60;;;11.60;99.90;;;;;;5041085;28;20032;-82
2022/10/07 04:35:16;;;;;;;3.72;3.42;;;11.60;99.90;;;;;;5045041;28;20045;-81
2022/10/07 04:37:43;;;;;;;4.57;3.38;;;11.50;99.90;;;;;;5039587;28;20121;-81
2022/10/07 04:40:12;;;;;;;5.45;4.70;;;11.50;99.90;;;;;;5041074;28;20057;-81
2022/10/07 04:45:22;;;;;;;7.28;5.68;;;11.50;99.90;;;;;;5028831;28;20061;-81
2022/10/07 04:47:48;;;;;;;5.80;5.07;;;11.40;99.90;;;;;;5029487;28;20025;-80
2022/10/07 04:50:14;;;;;;;7.50;5.05;;;11.40;99.90;;;;;;5031470;28;20018;-81
2022/10/07 04:52:41;;;;;;;5.35;4.82;;;11.40;99.90;;;;;;5030748;28;20034;-81
2022/10/07 04:55:09;;;;;;;5.15;4.05;;;11.30;99.90;;;;;;5031124;28;20029;-82
2022/10/07 04:57:35;;;;;;;4.80;4.40;;;11.30;99.90;;;;;;5024949;28;20026;-83
2022/10/07 05:00:01;;;;;;;5.15;4.65;;;11.30;99.90;;;;;;5038537;28;20040;-83
2022/10/07 05:02:27;;;;;;;6.40;5.45;;;11.30;99.90;;;;;;5020843;28;20026;-83
2022/10/07 05:04:52;;;;;;;6.60;5.93;;;11.20;99.90;;;;;;5023580;28;20018;-82
2022/10/07 05:07:18;;;;;;;10.77;7.07;;;11.20;99.90;;;;;;5040883;28;20044;-81
2022/10/07 05:09:44;;;;;;;9.27;7.22;;;11.20;99.90;;;;;;5058101;28;20024;-82
2022/10/07 05:12:10;;;;;;;11.32;7.18;;;11.10;99.90;;;;;;5034348;28;20036;-82
2022/10/07 05:14:36;;;;;;;10.27;7.80;;;11.10;99.90;;;;;;5051189;28;20109;-82
2022/10/07 05:17:02;;;;;;;9.00;7.18;;;11.10;99.90;;;;;;5050015;28;20025;-81
2022/10/07 05:19:28;;;;;;;16.10;9.45;;;11.10;99.90;;;;;;5051644;28;20100;-81
2022/10/07 05:21:54;;;;;;;14.43;9.77;;;11.00;99.90;;;;;;5045668;28;20029;-81
2022/10/07 05:24:20;;;;;;;16.05;10.48;;;11.10;99.90;;;;;;5043970;28;20037;-81
2022/10/07 05:26:45;;;;;;;15.52;10.35;;;11.10;99.90;;;;;;5041859;28;20470;-81
2022/10/07 05:29:11;;;;;;;19.52;10.63;;;11.20;99.90;;;;;;5033231;28;20394;-81
2022/10/07 05:31:36;;;;;;;17.52;11.10;;;11.20;99.90;;;;;;5041239;28;20034;-82
2022/10/07 05:34:02;;;;;;;17.05;10.85;;;11.20;99.90;;;;;;5034364;28;20064;-80
2022/10/07 05:36:28;;;;;;;17.92;11.57;;;11.20;99.90;;;;;;5022937;28;20026;-81
2022/10/07 05:38:57;;;;;;;15.60;10.55;;;11.20;99.90;;;;;;5039896;28;20017;-82
2022/10/07 05:41:23;;;;;;;16.15;10.48;;;11.20;99.90;;;;;;5043020;28;20037;-82
2022/10/07 05:43:49;;;;;;;18.55;11.02;;;11.20;99.90;;;;;;5066696;28;20021;-81
2022/10/07 05:46:18;;;;;;;18.27;12.15;;;11.30;99.90;;;;;;5044041;28;20109;-82
2022/10/07 05:48:49;;;;;;;22.02;13.30;;;11.30;99.90;;;;;;5041434;28;20120;-82
2022/10/07 05:51:16;;;;;;;20.10;12.45;;;11.30;99.90;;;;;;5019230;28;20092;-82
2022/10/07 05:53:42;;;;;;;20.60;12.48;;;11.40;99.90;;;;;;5025987;28;20077;-81
2022/10/07 05:56:10;;;;;;;18.35;11.93;;;11.50;99.90;;;;;;5021019;28;20022;-81
2022/10/07 05:58:37;;;;;;;21.45;12.68;;;11.60;99.90;;;;;;5036634;28;20060;-81
2022/10/07 06:01:05;;;;;;;22.33;12.40;;;11.70;99.90;;;;;;5035778;28;20026;-81
2022/10/07 06:03:32;;;;;;;20.35;11.80;;;11.70;99.90;;;;;;5043230;28;20079;-81
2022/10/07 06:05:59;;;;;;;21.55;11.98;;;11.80;99.90;;;;;;5039435;28;20025;-81
2022/10/07 06:08:26;;;;;;;18.02;11.18;;;11.80;99.90;;;;;;5042085;28;20021;-81
2022/10/07 06:13:36;;;;;;;17.65;10.70;;;12.00;99.90;;;;;;5038182;28;20036;-82
2022/10/07 06:16:07;;;;;;;13.93;9.25;;;12.10;99.90;;;;;;5038658;28;20005;-81
2022/10/07 06:18:36;;;;;;;15.25;9.05;;;12.20;99.90;;;;;;5036054;28;20073;-80
2022/10/07 06:21:02;;;;;;;13.60;9.40;;;12.30;99.90;;;;;;5027317;28;20052;-79
2022/10/07 06:23:28;;;;;;;16.60;10.13;;;12.40;99.90;;;;;;5021029;28;20033;-80
2022/10/07 06:25:56;;;;;;;14.38;9.73;;;12.50;99.90;;;;;;5028348;28;20030;-81
2022/10/07 06:28:22;;;;;;;10.40;7.75;;;12.50;99.90;;;;;;5018818;28;20481;-81
2022/10/07 06:30:48;;;;;;;10.68;7.90;;;12.60;99.90;;;;;;5034322;28;20025;-82
2022/10/07 06:33:16;;;;;;;11.68;8.13;;;12.60;99.90;;;;;;5030162;28;20034;-81
2022/10/07 06:35:42;;;;;;;12.20;7.75;;;12.70;99.90;;;;;;5023509;28;20048;-82
2022/10/07 06:38:11;;;;;;;9.45;7.35;;;12.80;99.90;;;;;;5046942;28;20040;-82
2022/10/07 06:40:38;;;;;;;9.05;7.30;;;12.80;99.90;;;;;;5041240;28;20045;-82
2022/10/07 06:43:04;;;;;;;11.90;9.00;;;12.80;99.90;;;;;;5039812;28;20040;-81
2022/10/07 06:45:57;;;;;;;15.77;11.90;;;12.90;99.90;;;;;;5058039;28;20020;-83
2022/10/07 06:52:13;;;;;;;13.98;9.15;;;13.00;99.90;;;;;;5037891;28;20055;-83
2022/10/07 06:54:39;;;;;;;14.90;10.57;;;13.10;99.90;;;;;;5029452;28;20018;-84
2022/10/07 06:57:05;;;;;;;16.08;11.50;;;13.10;99.90;;;;;;4998172;28;20045;-84
2022/10/07 06:59:31;;;;;;;13.55;9.85;;;13.10;99.90;;;;;;5025082;28;20538;-84
2022/10/07 07:02:00;;;;;;;14.77;9.02;;;13.10;99.90;;;;;;5024310;28;20437;-83
2022/10/07 07:04:25;;;;;;;17.00;10.85;;;13.20;99.90;;;;;;5041975;28;20204;-84
2022/10/07 07:06:52;;;;;;;15.15;10.25;;;13.20;99.90;;;;;;5042327;28;20137;-84
2022/10/07 07:09:20;;;;;;;18.23;11.63;;;13.20;99.90;;;;;;5048841;28;20036;-85
2022/10/07 07:11:45;;;;;;;14.07;9.68;;;13.30;99.90;;;;;;5037243;28;20057;-83
2022/10/07 07:14:13;;;;;;;12.38;9.27;;;13.40;99.90;;;;;;5037415;28;20032;-84
2022/10/07 07:16:39;;;;;;;13.32;9.80;;;13.50;99.90;;;;;;5054427;28;20105;-84
2022/10/07 07:19:07;;;;;;;15.18;9.32;;;13.60;99.90;;;;;;5051438;28;20013;-83
2022/10/07 07:21:43;;;;;;;18.25;11.23;;;13.70;99.90;;;;;;5031911;28;20085;-83
2022/10/07 07:24:09;;;;;;;14.93;10.25;;;13.80;99.90;;;;;;5033054;28;20041;-83
2022/10/07 07:26:45;;;;;;;13.15;8.85;;;13.90;99.90;;;;;;5056596;28;20029;-84
2022/10/07 07:29:12;;;;;;;13.77;9.18;;;13.90;99.90;;;;;;5035977;28;20065;-85
2022/10/07 07:31:40;;;;;;;10.23;7.45;;;13.90;99.90;;;;;;5010899;28;20101;-83
2022/10/07 07:34:13;;;;;;;8.18;6.60;;;13.90;99.90;;;;;;5021604;28;20033;-84
2022/10/07 07:36:41;;;;;;;;;;;14.00;99.90;;;;;;5042829;28;20049;-84
2022/10/07 07:39:10;;;;;;;17.38;11.65;;;14.10;99.90;;;;;;5043418;28;19909;-84
2022/10/07 07:41:40;;;;;;;17.83;12.10;;;14.00;99.90;;;;;;5041756;28;20559;-82
2022/10/07 07:44:11;;;;;;;14.18;9.85;;;13.90;99.90;;;;;;5044275;28;20029;-84
2022/10/07 07:46:50;;;;;;;12.73;9.60;;;13.90;99.90;;;;;;5047491;28;20072;-84
2022/10/07 07:49:18;;;;;;;11.98;7.88;;;13.90;99.90;;;;;;5028364;28;20030;-84
2022/10/07 07:51:44;;;;;;;11.68;8.00;;;14.00;99.90;;;;;;5044250;28;20084;-84
2022/10/07 07:54:11;;;;;;;11.23;7.75;;;14.20;99.90;;;;;;5048319;28;20029;-83
2022/10/07 07:56:38;;;;;;;8.75;6.65;;;14.40;99.90;;;;;;5017182;28;20030;-83
2022/10/07 07:59:04;;;;;;;9.93;7.53;;;14.50;99.90;;;;;;5039858;28;20025;-83
2022/10/07 08:01:42;;;;;;;9.38;7.07;;;14.70;99.90;;;;;;5031833;28;20022;-83
2022/10/07 08:04:09;;;;;;;12.73;9.50;;;14.80;99.90;;;;;;5038724;28;20056;-82
2022/10/07 08:06:34;;;;;;;12.50;8.85;;;14.90;99.90;;;;;;5046534;28;20025;-84
2022/10/07 08:09:00;;;;;;;15.55;11.95;;;14.90;99.90;;;;;;5044510;28;20022;-83
2022/10/07 08:11:28;;;;;;;13.65;9.52;;;14.80;99.90;;;;;;5045229;28;20459;-83
2022/10/07 08:13:55;;;;;;;9.85;7.20;;;14.70;99.90;;;;;;5030276;28;20040;-82
2022/10/07 08:16:22;;;;;;;11.45;9.00;;;14.80;99.90;;;;;;5029587;28;20037;-83
2022/10/07 08:18:50;;;;;;;15.82;10.65;;;14.90;99.90;;;;;;5047183;28;20043;-82
2022/10/07 08:21:21;;;;;;;11.48;9.25;;;15.00;99.90;;;;;;5046628;28;20017;-83
2022/10/07 08:23:50;;;;;;;9.02;7.20;;;15.10;99.90;;;;;;5046340;28;20478;-83
2022/10/07 08:26:16;;;;;;;9.90;7.82;;;15.30;99.90;;;;;;5046552;28;20048;-82
2022/10/07 08:28:41;;;;;;;13.98;10.52;;;15.50;99.90;;;;;;5039816;28;20049;-82
2022/10/07 08:31:10;;;;;;;16.13;12.25;;;15.60;99.90;;;;;;5042932;28;20037;-83
2022/10/07 08:33:38;;;;;;;13.50;10.50;;;15.50;99.90;;;;;;5029469;28;20095;-83
2022/10/07 08:36:06;;;;;;;12.27;10.02;;;15.40;99.90;;;;;;5045466;28;20385;-83
2022/10/07 08:38:34;;;;;;;14.45;10.57;;;15.50;99.90;;;;;;5045586;28;20025;-83
2022/10/07 08:41:16;;;;;;;11.55;8.65;;;15.60;99.90;;;;;;5072513;22;20519;-80
2022/10/07 08:43:46;;;;;;;11.10;8.45;;;15.70;99.90;;;;;;5056822;28;20108;-78
2022/10/07 08:46:14;;;;;;;9.48;8.05;;;15.80;99.70;;;;;;5061627;28;20027;-82
2022/10/07 08:48:44;;;;;;;8.27;7.07;;;15.80;99.60;;;;;;5043262;28;20135;-80
2022/10/07 08:51:32;;;;;;;7.95;7.15;;;15.90;99.50;;;;;;5061008;28;20461;-80
2022/10/07 08:53:58;;;;;;;7.43;6.38;;;15.90;99.40;;;;;;5042021;28;20025;-81
2022/10/07 08:56:29;;;;;;;11.80;9.38;;;15.90;99.30;;;;;;5023134;28;20028;-81
2022/10/07 08:59:08;;;;;;;10.23;8.40;;;15.90;98.90;;;;;;5040246;28;20085;-80
2022/10/07 09:01:52;;;;;;;9.40;8.05;;;16.00;98.90;;;;;;5039967;28;20037;-81
2022/10/07 09:04:32;;;;;;;9.63;6.32;;;16.10;98.60;;;;;;5020739;28;20060;-80
2022/10/07 09:07:13;;;;;;;12.00;8.88;;;16.10;98.70;;;;;;5020211;28;20449;-81
2022/10/07 09:10:02;;;;;;;8.93;8.02;;;16.10;98.30;;;;;;5019569;28;20033;-79
2022/10/07 09:12:56;;;;;;;10.27;7.65;;;16.20;98.10;;;;;;5042185;28;20051;-80
2022/10/07 09:15:44;;;;;;;11.20;7.75;;;16.20;98.10;;;;;;5061694;28;20013;-81
2022/10/07 09:18:22;;;;;;;7.45;6.05;;;16.20;98.00;;;;;;5042056;28;20087;-81
2022/10/07 09:20:52;;;;;;;9.57;7.80;;;16.30;98.20;;;;;;5060198;28;20400;-80
2022/10/07 09:23:29;;;;;;;12.55;9.38;;;16.50;97.60;;;;;;5032511;28;20120;-81
2022/10/07 09:25:55;;;;;;;9.93;8.25;;;16.50;97.20;;;;;;5004981;28;20032;-79
2022/10/07 09:28:28;;;;;;;11.05;8.98;;;16.50;96.80;;;;;;5020762;28;20029;-80
2022/10/07 09:30:55;;;;;;;8.85;7.55;;;16.50;96.80;;;;;;5022228;28;20030;-80
2022/10/07 09:33:22;;;;;;;9.88;7.68;;;16.60;96.80;;;;;;5022592;28;20034;-81
2022/10/07 09:35:57;;;;;;;8.88;7.35;;;16.60;96.80;;;;;;5042563;28;20026;-80
2022/10/07 09:38:37;;;;;;;6.78;6.07;;;16.60;96.60;;;;;;5041359;28;20521;-81
2022/10/07 09:41:21;;;;;;;7.07;6.20;;;16.70;96.80;;;;;;5034533;28;20050;-81
2022/10/07 09:44:11;;;;;;;7.53;6.35;;;16.70;96.70;;;;;;5039415;28;20025;-80
2022/10/07 09:46:51;;;;;;;6.75;5.85;;;16.90;96.30;;;;;;5019145;28;20072;-80
2022/10/07 09:49:50;;;;;;;6.25;5.57;;;17.00;96.00;;;;;;5019114;28;20113;-79
2022/10/07 09:52:22;;;;;;;8.27;6.82;;;17.00;95.60;;;;;;5018324;28;20501;-80
2022/10/07 09:54:53;;;;;;;8.18;6.45;;;17.00;95.40;;;;;;5028111;28;20597;-79
2022/10/07 09:57:31;;;;;;;6.85;5.75;;;16.90;95.50;;;;;;5024156;28;20359;-80
2022/10/07 10:00:22;;;;;;;6.45;5.85;;;16.90;95.80;;;;;;5018036;28;20022;-80
2022/10/07 10:03:08;;;;;;;6.93;5.43;;;16.90;95.60;;;;;;5018672;28;20026;-79
2022/10/07 10:05:40;;;;;;;6.97;6.28;;;17.00;95.50;;;;;;5030730;28;20033;-82
2022/10/07 10:08:18;;;;;;;9.53;6.90;;;17.10;95.30;;;;;;5040125;28;20101;-80
2022/10/07 10:10:52;;;;;;;8.98;6.10;;;17.20;94.80;;;;;;5039710;28;20248;-79
2022/10/07 10:13:29;;;;;;;7.72;6.43;;;17.30;94.60;;;;;;5050231;28;20021;-79
2022/10/07 10:15:55;;;;;;;8.48;6.43;;;17.40;94.40;;;;;;5038359;28;20025;-80
2022/10/07 10:18:37;;;;;;;8.23;6.13;;;17.50;94.00;;;;;;5040526;28;20111;-80
2022/10/07 10:21:18;;;;;;;9.20;7.88;;;17.60;93.70;;;;;;5022443;28;20026;-78
2022/10/07 10:24:13;;;;;;;7.50;6.78;;;17.60;93.40;;;;;;5041708;28;20049;-79
2022/10/07 10:27:13;;;;;;;8.00;5.20;;;17.60;93.30;;;;;;5038295;28;20497;-81
2022/10/07 10:29:49;;;;;;;8.68;7.60;;;17.60;93.40;;;;;;5038409;28;20433;-81
2022/10/07 10:33:08;;;;;;;7.15;6.05;;;17.60;93.10;;;;;;5039345;28;20029;-81
2022/10/07 10:35:46;;;;;;;7.43;5.82;;;17.50;93.20;;;;;;4939996;28;20094;-82
2022/10/07 10:38:46;;;;;;;7.55;6.47;;;17.60;93.40;;;;;;5033957;28;20381;-81
2022/10/07 10:41:34;;;;;;;7.90;6.63;;;17.50;93.30;;;;;;5027335;28;20029;-83
2022/10/07 10:44:31;;;;;;;7.03;6.28;;;17.70;93.30;;;;;;5050917;28;20021;-81
2022/10/07 10:47:13;;;;;;;7.70;6.47;;;17.90;92.80;;;;;;5026009;28;20529;-80
2022/10/07 10:49:47;;;;;;;8.45;7.60;;;18.20;92.30;;;;;;5018192;28;20449;-79
2022/10/07 10:52:22;;;;;;;8.00;7.05;;;18.40;91.40;;;;;;4999984;28;20053;-80
2022/10/07 10:55:12;;;;;;;8.82;7.32;;;18.40;91.20;;;;;;5018123;28;20465;-81
2022/10/07 10:58:04;;;;;;;10.55;8.98;;;18.50;91.20;;;;;;4999930;28;20117;-82
2022/10/07 11:00:51;;;;;;;14.43;11.18;;;18.60;90.70;;;;;;5019652;28;20026;-80
2022/10/07 11:03:41;;;;;;;7.35;6.40;;;18.60;90.30;;;;;;5018917;28;20044;-80
2022/10/07 11:06:13;;;;;;;13.18;9.77;;;18.60;90.80;;;;;;5000531;28;20026;-81
2022/10/07 11:08:40;;;;;;;13.48;9.32;;;18.60;90.50;;;;;;5017878;28;20022;-82
2022/10/07 11:11:08;;;;;;;6.85;6.03;;;18.70;90.30;;;;;;5001757;28;20034;-81
2022/10/07 11:13:57;;;;;;;7.60;6.32;;;18.80;90.20;;;;;;5045082;28;20351;-81
2022/10/07 11:16:41;;;;;;;8.45;7.20;;;18.70;90.20;;;;;;5019567;28;20076;-81
2022/10/07 11:19:33;;;;;;;11.57;9.57;;;18.60;90.10;;;;;;5004417;28;20025;-81
2022/10/07 11:21:59;;;;;;;;;;;18.40;90.00;;;;;;5043812;28;20014;-82
2022/10/07 11:24:49;;;;;;;7.82;7.00;;;18.50;90.30;;;;;;5036726;28;19957;-82
2022/10/07 11:27:33;;;;;;;5.57;4.82;;;18.60;90.30;;;;;;5053972;28;20022;-83
2022/10/07 11:30:03;;;;;;;6.47;5.82;;;18.70;90.10;;;;;;5049520;28;20056;-83
2022/10/07 11:32:42;;;;;;;7.72;6.47;;;18.80;90.00;;;;;;5054603;28;20083;-82
2022/10/07 11:35:19;;;;;;;7.13;5.88;;;19.00;89.10;;;;;;5054852;28;20020;-82
2022/10/07 11:38:08;;;;;;;5.60;4.85;;;19.10;88.60;;;;;;5050114;28;20018;-82
2022/10/07 11:40:43;;;;;;;8.48;6.95;;;19.20;88.20;;;;;;5027322;28;20124;-82
2022/10/07 11:43:47;;;;;;;8.18;5.90;;;19.20;87.90;;;;;;5026110;28;20029;-83
2022/10/07 11:46:35;;;;;;;7.55;5.85;;;19.20;87.90;;;;;;4993436;28;20041;-83
2022/10/07 11:49:10;;;;;;;6.57;5.20;;;19.30;87.80;;;;;;5021313;28;20029;-82
2022/10/07 11:51:45;;;;;;;6.50;5.20;;;19.50;87.00;;;;;;5038737;28;20061;-82
2022/10/07 11:54:15;;;;;;;12.30;8.43;;;19.50;86.40;;;;;;5044541;28;20017;-82
2022/10/07 11:56:48;;;;;;;8.80;6.93;;;19.40;85.40;;;;;;5043661;28;20044;-84
2022/10/07 11:59:42;;;;;;;12.68;8.55;;;19.50;86.00;;;;;;5046811;28;20040;-83
2022/10/07 12:02:29;;;;;;;14.48;9.63;;;19.60;85.70;;;;;;5064940;28;20028;-83
2022/10/07 12:04:56;;;;;;;8.90;7.10;;;19.50;84.70;;;;;;5045783;28;20055;-82
2022/10/07 12:07:31;;;;;;;8.00;4.47;;;19.60;85.30;;;;;;5007703;28;20049;-83
2022/10/07 12:10:02;;;;;;;20.88;12.93;;;19.80;85.30;;;;;;5008732;28;20022;-83
2022/10/07 12:12:43;;;;;;;10.55;7.80;;;19.80;83.10;;;;;;5050687;28;20050;-83
2022/10/07 12:15:43;;;;;;;5.15;4.50;;;19.60;84.10;;;;;;5038878;28;20038;-84
2022/10/07 12:18:18;;;;;;;7.88;6.55;;;19.80;85.00;;;;;;5029880;28;20097;-83
2022/10/07 12:20:56;;;;;;;13.93;11.02;;;20.10;83.80;;;;;;5012048;28;20090;-83
2022/10/07 12:23:22;;;;;;;15.52;10.70;;;20.10;81.80;;;;;;5030265;28;20081;-84
2022/10/07 12:25:48;;;;;;;17.25;10.65;;;19.70;84.10;;;;;;5007710;28;20544;-82
2022/10/07 12:28:47;;;;;;;12.98;10.27;;;19.50;84.90;;;;;;5020786;28;20034;-83
2022/10/07 12:31:21;;;;;;;11.77;9.15;;;19.50;85.60;;;;;;5003875;28;20052;-83
2022/10/07 12:33:55;;;;;;;11.50;8.82;;;19.60;84.40;;;;;;5029808;28;20041;-83
2022/10/07 12:36:26;;;;;;;14.05;9.25;;;19.60;83.80;;;;;;5029723;28;20021;-83
2022/10/07 12:38:55;;;;;;;11.60;8.57;;;19.70;83.10;;;;;;5026223;28;20107;-83
2022/10/07 12:41:39;;;;;;;10.70;7.13;;;19.80;82.50;;;;;;5031813;28;20034;-82
2022/10/07 12:44:17;;;;;;;16.45;10.38;;;19.90;83.10;;;;;;5046225;28;20025;-81
2022/10/07 12:46:51;;;;;;;16.00;8.80;;;20.20;81.90;;;;;;5050077;28;20052;-82
2022/10/07 12:49:29;;;;;;;13.70;9.60;;;20.20;81.40;;;;;;5034644;28;20105;-82
2022/10/07 12:51:59;;;;;;;14.13;10.40;;;20.20;80.70;;;;;;5051909;28;20436;-83
2022/10/07 12:55:00;;;;;;;9.20;6.80;;;20.20;81.40;;;;;;5044915;28;20037;-83
2022/10/07 12:57:35;;;;;;;10.43;7.30;;;20.10;82.30;;;;;;5031055;28;20048;-83
2022/10/07 13:00:28;;;;;;;6.70;5.35;;;20.10;82.10;;;;;;5047181;28;20021;-82
2022/10/07 13:03:13;;;;;;;11.55;8.07;;;20.10;82.20;;;;;;5049209;28;20063;-82
2022/10/07 13:06:12;;;;;;;12.75;8.02;;;19.90;82.20;;;;;;5031503;28;20037;-83
2022/10/07 13:09:01;;;;;;;16.27;11.70;;;19.70;83.70;;;;;;5050005;28;20386;-83
2022/10/07 13:11:54;;;;;;;15.13;11.63;;;19.60;84.30;;;;;;5050342;28;20029;-83
2022/10/07 13:14:30;;;;;;;17.60;11.55;;;19.50;85.50;;;;;;5061256;28;20241;-83
2022/10/07 13:17:24;;;;;;;17.17;12.93;;;19.30;86.70;;;;;;5061302;28;20369;-84
2022/10/07 13:20:42;;;;;;;20.73;12.70;;;19.00;88.00;;;;;;5027860;28;20037;-84
2022/10/07 13:23:16;;;;;;;15.10;9.75;;;18.80;89.40;;;;;;5013770;28;20095;-82
2022/10/07 13:25:54;;;;;;;11.50;8.00;;;18.80;90.30;;;;;;5046479;28;20037;-83
2022/10/07 13:28:23;;;;;;;21.70;13.38;;;18.90;90.30;;;;;;5039647;28;20029;-84